sensor_id;sensor_type;location;lat;lon;timestamp;P1;durP1;ratioP1;P2;durP2;ratioP2
2362;SDS011;64265;51.664;7.626;2023-06-22T00:02:00;3.00;;;2.80;;
2362;SDS011;64265;51.664;7.626;2023-06-22T00:04:27;3.77;;;3.47;;
2362;SDS011;64265;51.664;7.626;2023-06-22T00:06:54;3.37;;;3.17;;
2362;SDS011;64265;51.664;7.626;2023-06-22T00:09:20;3.50;;;3.20;;
2362;SDS011;64265;51.664;7.626;2023-06-22T00:11:47;2.80;;;2.60;;
2362;SDS011;64265;51.664;7.626;2023-06-22T00:14:15;4.07;;;3.77;;
2362;SDS011;64265;51.664;7.626;2023-06-22T00:16:42;3.33;;;3.07;;
2362;SDS011;64265;51.664;7.626;2023-06-22T00:19:08;3.47;;;3.17;;
2362;SDS011;64265;51.664;7.626;2023-06-22T00:21:36;2.80;;;2.60;;
2362;SDS011;64265;51.664;7.626;2023-06-22T00:24:04;2.77;;;2.57;;
2362;SDS011;64265;51.664;7.626;2023-06-22T00:26:32;3.40;;;3.10;;
2362;SDS011;64265;51.664;7.626;2023-06-22T00:28:58;4.03;;;3.73;;
2362;SDS011;64265;51.664;7.626;2023-06-22T00:31:26;2.97;;;2.70;;
2362;SDS011;64265;51.664;7.626;2023-06-22T00:33:53;2.77;;;2.57;;
2362;SDS011;64265;51.664;7.626;2023-06-22T00:36:20;3.23;;;3.00;;
2362;SDS011;64265;51.664;7.626;2023-06-22T00:38:49;3.40;;;3.10;;
2362;SDS011;64265;51.664;7.626;2023-06-22T00:41:16;2.83;;;2.53;;
2362;SDS011;64265;51.664;7.626;2023-06-22T00:43:43;2.70;;;2.50;;
2362;SDS011;64265;51.664;7.626;2023-06-22T00:46:10;4.30;;;3.00;;
2362;SDS011;64265;51.664;7.626;2023-06-22T00:48:38;3.50;;;3.20;;
2362;SDS011;64265;51.664;7.626;2023-06-22T00:51:09;2.63;;;2.43;;
2362;SDS011;64265;51.664;7.626;2023-06-22T00:53:36;2.80;;;2.60;;
2362;SDS011;64265;51.664;7.626;2023-06-22T00:56:03;3.03;;;2.83;;
2362;SDS011;64265;51.664;7.626;2023-06-22T00:58:31;3.00;;;2.80;;
2362;SDS011;64265;51.664;7.626;2023-06-22T01:00:58;3.20;;;3.00;;
2362;SDS011;64265;51.664;7.626;2023-06-22T01:03:25;2.50;;;2.30;;
2362;SDS011;64265;51.664;7.626;2023-06-22T01:05:53;3.40;;;3.10;;
2362;SDS011;64265;51.664;7.626;2023-06-22T01:08:29;3.20;;;3.00;;
2362;SDS011;64265;51.664;7.626;2023-06-22T01:11:05;2.70;;;2.50;;
2362;SDS011;64265;51.664;7.626;2023-06-22T01:13:35;2.87;;;2.67;;
2362;SDS011;64265;51.664;7.626;2023-06-22T01:16:07;3.60;;;3.30;;
2362;SDS011;64265;51.664;7.626;2023-06-22T01:18:40;3.40;;;3.10;;
2362;SDS011;64265;51.664;7.626;2023-06-22T01:21:11;2.87;;;2.67;;
2362;SDS011;64265;51.664;7.626;2023-06-22T01:23:47;2.70;;;2.50;;
2362;SDS011;64265;51.664;7.626;2023-06-22T01:26:20;3.80;;;3.50;;
2362;SDS011;64265;51.664;7.626;2023-06-22T01:28:56;3.30;;;2.57;;
2362;SDS011;64265;51.664;7.626;2023-06-22T01:31:25;2.80;;;2.60;;
2362;SDS011;64265;51.664;7.626;2023-06-22T01:33:55;5.53;;;3.53;;
2362;SDS011;64265;51.664;7.626;2023-06-22T01:36:24;3.20;;;3.00;;
2362;SDS011;64265;51.664;7.626;2023-06-22T01:38:52;3.17;;;2.80;;
2362;SDS011;64265;51.664;7.626;2023-06-22T01:41:19;2.73;;;2.53;;
2362;SDS011;64265;51.664;7.626;2023-06-22T01:43:47;2.73;;;2.40;;
2362;SDS011;64265;51.664;7.626;2023-06-22T01:46:16;3.07;;;2.77;;
2362;SDS011;64265;51.664;7.626;2023-06-22T01:48:45;2.77;;;2.57;;
2362;SDS011;64265;51.664;7.626;2023-06-22T01:51:12;2.70;;;2.50;;
2362;SDS011;64265;51.664;7.626;2023-06-22T01:53:39;3.27;;;2.97;;
2362;SDS011;64265;51.664;7.626;2023-06-22T01:56:06;2.70;;;2.50;;
2362;SDS011;64265;51.664;7.626;2023-06-22T01:58:33;3.17;;;2.97;;
2362;SDS011;64265;51.664;7.626;2023-06-22T02:01:06;2.93;;;2.73;;
2362;SDS011;64265;51.664;7.626;2023-06-22T02:03:38;3.00;;;2.80;;
2362;SDS011;64265;51.664;7.626;2023-06-22T02:06:11;4.07;;;2.90;;
2362;SDS011;64265;51.664;7.626;2023-06-22T02:08:45;2.80;;;2.60;;
2362;SDS011;64265;51.664;7.626;2023-06-22T02:11:14;3.50;;;3.20;;
2362;SDS011;64265;51.664;7.626;2023-06-22T02:13:43;2.70;;;2.50;;
2362;SDS011;64265;51.664;7.626;2023-06-22T02:16:11;3.07;;;2.83;;
2362;SDS011;64265;51.664;7.626;2023-06-22T02:18:39;3.43;;;2.60;;
2362;SDS011;64265;51.664;7.626;2023-06-22T02:21:12;2.83;;;2.63;;
2362;SDS011;64265;51.664;7.626;2023-06-22T02:23:39;2.20;;;2.10;;
2362;SDS011;64265;51.664;7.626;2023-06-22T02:26:05;2.93;;;2.73;;
2362;SDS011;64265;51.664;7.626;2023-06-22T02:28:32;2.33;;;2.13;;
2362;SDS011;64265;51.664;7.626;2023-06-22T02:30:59;2.97;;;2.77;;
2362;SDS011;64265;51.664;7.626;2023-06-22T02:33:25;2.70;;;2.50;;
2362;SDS011;64265;51.664;7.626;2023-06-22T02:35:53;3.30;;;3.10;;
2362;SDS011;64265;51.664;7.626;2023-06-22T02:38:20;2.67;;;2.47;;
2362;SDS011;64265;51.664;7.626;2023-06-22T02:40:49;2.77;;;2.57;;
2362;SDS011;64265;51.664;7.626;2023-06-22T02:43:16;2.60;;;2.40;;
2362;SDS011;64265;51.664;7.626;2023-06-22T02:45:42;2.70;;;2.50;;
2362;SDS011;64265;51.664;7.626;2023-06-22T02:48:09;2.77;;;2.57;;
2362;SDS011;64265;51.664;7.626;2023-06-22T02:50:36;2.60;;;2.40;;
2362;SDS011;64265;51.664;7.626;2023-06-22T02:53:04;2.80;;;2.60;;
2362;SDS011;64265;51.664;7.626;2023-06-22T02:55:31;2.33;;;2.13;;
2362;SDS011;64265;51.664;7.626;2023-06-22T02:57:58;2.90;;;2.70;;
2362;SDS011;64265;51.664;7.626;2023-06-22T03:00:25;2.43;;;2.23;;
2362;SDS011;64265;51.664;7.626;2023-06-22T03:02:55;2.50;;;2.30;;
2362;SDS011;64265;51.664;7.626;2023-06-22T03:05:22;2.77;;;2.57;;
2362;SDS011;64265;51.664;7.626;2023-06-22T03:07:49;3.20;;;2.90;;
2362;SDS011;64265;51.664;7.626;2023-06-22T03:10:17;2.73;;;2.50;;
2362;SDS011;64265;51.664;7.626;2023-06-22T03:12:44;2.87;;;2.67;;
2362;SDS011;64265;51.664;7.626;2023-06-22T03:15:11;3.10;;;2.90;;
2362;SDS011;64265;51.664;7.626;2023-06-22T03:17:39;2.87;;;2.67;;
2362;SDS011;64265;51.664;7.626;2023-06-22T03:20:07;3.00;;;2.80;;
2362;SDS011;64265;51.664;7.626;2023-06-22T03:22:36;2.93;;;2.73;;
2362;SDS011;64265;51.664;7.626;2023-06-22T03:25:04;3.23;;;3.03;;
2362;SDS011;64265;51.664;7.626;2023-06-22T03:27:36;2.90;;;2.70;;
2362;SDS011;64265;51.664;7.626;2023-06-22T03:30:03;2.97;;;2.70;;
2362;SDS011;64265;51.664;7.626;2023-06-22T03:32:30;2.47;;;2.27;;
2362;SDS011;64265;51.664;7.626;2023-06-22T03:34:57;2.80;;;2.60;;
2362;SDS011;64265;51.664;7.626;2023-06-22T03:37:24;2.50;;;2.30;;
2362;SDS011;64265;51.664;7.626;2023-06-22T03:39:50;2.60;;;2.40;;
2362;SDS011;64265;51.664;7.626;2023-06-22T03:42:17;2.40;;;2.20;;
2362;SDS011;64265;51.664;7.626;2023-06-22T03:44:45;3.17;;;2.97;;
2362;SDS011;64265;51.664;7.626;2023-06-22T03:47:12;3.10;;;2.90;;
2362;SDS011;64265;51.664;7.626;2023-06-22T03:49:39;2.37;;;2.20;;
2362;SDS011;64265;51.664;7.626;2023-06-22T03:52:06;2.90;;;2.70;;
2362;SDS011;64265;51.664;7.626;2023-06-22T03:54:33;2.70;;;2.50;;
2362;SDS011;64265;51.664;7.626;2023-06-22T03:57:00;2.60;;;2.40;;
2362;SDS011;64265;51.664;7.626;2023-06-22T03:59:27;3.70;;;3.40;;
2362;SDS011;64265;51.664;7.626;2023-06-22T04:01:55;2.67;;;2.50;;
2362;SDS011;64265;51.664;7.626;2023-06-22T04:04:21;2.73;;;2.53;;
2362;SDS011;64265;51.664;7.626;2023-06-22T04:06:48;3.00;;;2.80;;
2362;SDS011;64265;51.664;7.626;2023-06-22T04:09:15;2.70;;;2.50;;
2362;SDS011;64265;51.664;7.626;2023-06-22T04:11:42;3.20;;;2.97;;
2362;SDS011;64265;51.664;7.626;2023-06-22T04:14:08;2.77;;;2.57;;
2362;SDS011;64265;51.664;7.626;2023-06-22T04:16:35;2.83;;;2.50;;
2362;SDS011;64265;51.664;7.626;2023-06-22T04:19:03;2.60;;;2.40;;
2362;SDS011;64265;51.664;7.626;2023-06-22T04:21:29;2.40;;;2.30;;
2362;SDS011;64265;51.664;7.626;2023-06-22T04:23:56;3.13;;;2.90;;
2362;SDS011;64265;51.664;7.626;2023-06-22T04:26:23;3.80;;;2.33;;
2362;SDS011;64265;51.664;7.626;2023-06-22T04:28:49;2.50;;;2.30;;
2362;SDS011;64265;51.664;7.626;2023-06-22T04:31:20;2.13;;;2.03;;
2362;SDS011;64265;51.664;7.626;2023-06-22T04:33:47;2.70;;;2.50;;
2362;SDS011;64265;51.664;7.626;2023-06-22T04:36:17;2.73;;;2.53;;
2362;SDS011;64265;51.664;7.626;2023-06-22T04:38:46;2.77;;;2.57;;
2362;SDS011;64265;51.664;7.626;2023-06-22T04:41:12;2.70;;;2.50;;
2362;SDS011;64265;51.664;7.626;2023-06-22T04:43:48;2.70;;;2.50;;
2362;SDS011;64265;51.664;7.626;2023-06-22T04:46:19;2.70;;;2.50;;
2362;SDS011;64265;51.664;7.626;2023-06-22T04:48:45;2.20;;;2.03;;
2362;SDS011;64265;51.664;7.626;2023-06-22T04:51:12;2.83;;;2.63;;
2362;SDS011;64265;51.664;7.626;2023-06-22T04:53:40;2.60;;;2.40;;
2362;SDS011;64265;51.664;7.626;2023-06-22T04:56:07;2.90;;;2.70;;
2362;SDS011;64265;51.664;7.626;2023-06-22T04:58:34;2.50;;;2.30;;
2362;SDS011;64265;51.664;7.626;2023-06-22T05:01:01;2.50;;;2.30;;
2362;SDS011;64265;51.664;7.626;2023-06-22T05:03:28;2.77;;;2.57;;
2362;SDS011;64265;51.664;7.626;2023-06-22T05:05:55;3.00;;;2.80;;
2362;SDS011;64265;51.664;7.626;2023-06-22T05:08:22;3.13;;;2.93;;
2362;SDS011;64265;51.664;7.626;2023-06-22T05:10:53;2.00;;;1.90;;
2362;SDS011;64265;51.664;7.626;2023-06-22T05:13:19;2.43;;;2.23;;
2362;SDS011;64265;51.664;7.626;2023-06-22T05:15:46;2.40;;;2.20;;
2362;SDS011;64265;51.664;7.626;2023-06-22T05:18:13;2.03;;;1.93;;
2362;SDS011;64265;51.664;7.626;2023-06-22T05:20:40;1.90;;;1.80;;
2362;SDS011;64265;51.664;7.626;2023-06-22T05:23:07;2.80;;;2.60;;
2362;SDS011;64265;51.664;7.626;2023-06-22T05:25:33;2.70;;;2.50;;
2362;SDS011;64265;51.664;7.626;2023-06-22T05:28:01;2.37;;;2.07;;
2362;SDS011;64265;51.664;7.626;2023-06-22T05:30:35;3.30;;;3.00;;
2362;SDS011;64265;51.664;7.626;2023-06-22T05:33:02;2.80;;;2.60;;
2362;SDS011;64265;51.664;7.626;2023-06-22T05:35:29;2.90;;;2.70;;
2362;SDS011;64265;51.664;7.626;2023-06-22T05:37:55;2.60;;;2.40;;
2362;SDS011;64265;51.664;7.626;2023-06-22T05:40:22;2.37;;;2.17;;
2362;SDS011;64265;51.664;7.626;2023-06-22T05:42:49;3.10;;;2.90;;
2362;SDS011;64265;51.664;7.626;2023-06-22T05:45:17;2.93;;;2.73;;
2362;SDS011;64265;51.664;7.626;2023-06-22T05:47:43;2.37;;;2.17;;
2362;SDS011;64265;51.664;7.626;2023-06-22T05:50:10;2.77;;;2.57;;
2362;SDS011;64265;51.664;7.626;2023-06-22T05:52:37;2.70;;;2.50;;
2362;SDS011;64265;51.664;7.626;2023-06-22T05:55:04;2.57;;;2.37;;
2362;SDS011;64265;51.664;7.626;2023-06-22T05:57:31;2.40;;;2.20;;
2362;SDS011;64265;51.664;7.626;2023-06-22T05:59:58;2.57;;;2.37;;
2362;SDS011;64265;51.664;7.626;2023-06-22T06:02:26;2.40;;;2.20;;
2362;SDS011;64265;51.664;7.626;2023-06-22T06:04:52;2.37;;;2.17;;
2362;SDS011;64265;51.664;7.626;2023-06-22T06:07:19;2.53;;;2.33;;
2362;SDS011;64265;51.664;7.626;2023-06-22T06:09:46;3.07;;;2.87;;
2362;SDS011;64265;51.664;7.626;2023-06-22T06:12:13;2.77;;;2.57;;
2362;SDS011;64265;51.664;7.626;2023-06-22T06:14:39;2.57;;;2.37;;
2362;SDS011;64265;51.664;7.626;2023-06-22T06:17:06;2.70;;;2.50;;
2362;SDS011;64265;51.664;7.626;2023-06-22T06:19:34;4.00;;;3.13;;
2362;SDS011;64265;51.664;7.626;2023-06-22T06:22:01;3.30;;;3.10;;
2362;SDS011;64265;51.664;7.626;2023-06-22T06:24:27;5.43;;;3.10;;
2362;SDS011;64265;51.664;7.626;2023-06-22T06:26:54;3.93;;;3.63;;
2362;SDS011;64265;51.664;7.626;2023-06-22T06:29:21;3.27;;;2.97;;
2362;SDS011;64265;51.664;7.626;2023-06-22T06:31:50;3.20;;;2.77;;
2362;SDS011;64265;51.664;7.626;2023-06-22T06:34:17;4.37;;;3.20;;
2362;SDS011;64265;51.664;7.626;2023-06-22T06:36:45;3.73;;;3.43;;
2362;SDS011;64265;51.664;7.626;2023-06-22T06:39:12;3.20;;;2.73;;
2362;SDS011;64265;51.664;7.626;2023-06-22T06:41:38;3.57;;;3.30;;
2362;SDS011;64265;51.664;7.626;2023-06-22T06:44:05;4.20;;;3.30;;
2362;SDS011;64265;51.664;7.626;2023-06-22T06:46:32;3.53;;;3.23;;
2362;SDS011;64265;51.664;7.626;2023-06-22T06:48:59;4.00;;;3.70;;
2362;SDS011;64265;51.664;7.626;2023-06-22T06:51:25;3.87;;;3.53;;
2362;SDS011;64265;51.664;7.626;2023-06-22T06:53:53;5.20;;;4.20;;
2362;SDS011;64265;51.664;7.626;2023-06-22T06:56:20;7.63;;;6.90;;
2362;SDS011;64265;51.664;7.626;2023-06-22T06:58:47;7.83;;;6.57;;
2362;SDS011;64265;51.664;7.626;2023-06-22T07:01:15;7.93;;;7.23;;
2362;SDS011;64265;51.664;7.626;2023-06-22T07:03:42;8.67;;;7.90;;
2362;SDS011;64265;51.664;7.626;2023-06-22T07:06:09;10.07;;;9.17;;
2362;SDS011;64265;51.664;7.626;2023-06-22T07:08:35;10.87;;;9.77;;
2362;SDS011;64265;51.664;7.626;2023-06-22T07:11:03;9.60;;;8.70;;
2362;SDS011;64265;51.664;7.626;2023-06-22T07:13:30;9.40;;;8.50;;
2362;SDS011;64265;51.664;7.626;2023-06-22T07:15:57;8.70;;;7.97;;
2362;SDS011;64265;51.664;7.626;2023-06-22T07:18:24;11.90;;;9.47;;
2362;SDS011;64265;51.664;7.626;2023-06-22T07:20:51;10.77;;;9.77;;
2362;SDS011;64265;51.664;7.626;2023-06-22T07:23:18;16.53;;;11.13;;
2362;SDS011;64265;51.664;7.626;2023-06-22T07:25:44;11.17;;;10.10;;
2362;SDS011;64265;51.664;7.626;2023-06-22T07:28:12;16.13;;;10.40;;
2362;SDS011;64265;51.664;7.626;2023-06-22T07:30:39;12.30;;;9.70;;
2362;SDS011;64265;51.664;7.626;2023-06-22T07:33:06;12.40;;;11.10;;
2362;SDS011;64265;51.664;7.626;2023-06-22T07:35:33;10.13;;;9.30;;
2362;SDS011;64265;51.664;7.626;2023-06-22T07:38:00;13.13;;;10.30;;
2362;SDS011;64265;51.664;7.626;2023-06-22T07:40:27;11.20;;;10.20;;
2362;SDS011;64265;51.664;7.626;2023-06-22T07:42:53;11.40;;;10.30;;
2362;SDS011;64265;51.664;7.626;2023-06-22T07:45:21;10.27;;;9.40;;
2362;SDS011;64265;51.664;7.626;2023-06-22T07:47:48;14.13;;;11.00;;
2362;SDS011;64265;51.664;7.626;2023-06-22T07:50:15;14.60;;;12.07;;
2362;SDS011;64265;51.664;7.626;2023-06-22T07:52:42;10.90;;;9.40;;
2362;SDS011;64265;51.664;7.626;2023-06-22T07:55:09;10.67;;;9.63;;
2362;SDS011;64265;51.664;7.626;2023-06-22T07:57:35;11.73;;;9.90;;
2362;SDS011;64265;51.664;7.626;2023-06-22T08:00:03;10.97;;;9.67;;
2362;SDS011;64265;51.664;7.626;2023-06-22T08:02:40;10.13;;;9.23;;
2362;SDS011;64265;51.664;7.626;2023-06-22T08:05:08;12.43;;;11.33;;
2362;SDS011;64265;51.664;7.626;2023-06-22T08:07:36;15.00;;;12.17;;
2362;SDS011;64265;51.664;7.626;2023-06-22T08:10:03;11.03;;;9.97;;
2362;SDS011;64265;51.664;7.626;2023-06-22T08:12:30;12.60;;;11.00;;
2362;SDS011;64265;51.664;7.626;2023-06-22T08:14:57;10.87;;;9.93;;
2362;SDS011;64265;51.664;7.626;2023-06-22T08:17:23;12.00;;;9.93;;
2362;SDS011;64265;51.664;7.626;2023-06-22T08:19:52;11.53;;;9.50;;
2362;SDS011;64265;51.664;7.626;2023-06-22T08:22:18;10.63;;;9.53;;
2362;SDS011;64265;51.664;7.626;2023-06-22T08:24:45;13.03;;;9.80;;
2362;SDS011;64265;51.664;7.626;2023-06-22T08:27:12;10.63;;;8.93;;
2362;SDS011;64265;51.664;7.626;2023-06-22T08:29:39;11.20;;;10.10;;
2362;SDS011;64265;51.664;7.626;2023-06-22T08:32:07;18.80;;;10.80;;
2362;SDS011;64265;51.664;7.626;2023-06-22T08:34:34;11.63;;;10.53;;
2362;SDS011;64265;51.664;7.626;2023-06-22T08:37:03;14.50;;;10.80;;
2362;SDS011;64265;51.664;7.626;2023-06-22T08:39:31;13.00;;;11.73;;
2362;SDS011;64265;51.664;7.626;2023-06-22T08:41:58;11.47;;;10.40;;
2362;SDS011;64265;51.664;7.626;2023-06-22T08:44:25;14.70;;;10.77;;
2362;SDS011;64265;51.664;7.626;2023-06-22T08:46:51;10.80;;;8.63;;
2362;SDS011;64265;51.664;7.626;2023-06-22T08:49:18;10.20;;;9.13;;
2362;SDS011;64265;51.664;7.626;2023-06-22T08:51:45;10.60;;;9.70;;
2362;SDS011;64265;51.664;7.626;2023-06-22T08:54:15;11.90;;;10.80;;
2362;SDS011;64265;51.664;7.626;2023-06-22T08:56:42;12.00;;;10.80;;
2362;SDS011;64265;51.664;7.626;2023-06-22T08:59:09;11.43;;;10.53;;
2362;SDS011;64265;51.664;7.626;2023-06-22T09:01:36;12.13;;;11.03;;
2362;SDS011;64265;51.664;7.626;2023-06-22T09:04:03;11.67;;;10.53;;
2362;SDS011;64265;51.664;7.626;2023-06-22T09:06:31;11.70;;;10.60;;
2362;SDS011;64265;51.664;7.626;2023-06-22T09:08:58;11.23;;;10.33;;
2362;SDS011;64265;51.664;7.626;2023-06-22T09:11:26;11.93;;;10.40;;
2362;SDS011;64265;51.664;7.626;2023-06-22T09:13:53;12.20;;;11.00;;
2362;SDS011;64265;51.664;7.626;2023-06-22T09:16:20;11.03;;;10.00;;
2362;SDS011;64265;51.664;7.626;2023-06-22T09:18:47;11.97;;;9.73;;
2362;SDS011;64265;51.664;7.626;2023-06-22T09:21:14;10.73;;;9.70;;
2362;SDS011;64265;51.664;7.626;2023-06-22T09:23:40;11.20;;;10.20;;
2362;SDS011;64265;51.664;7.626;2023-06-22T09:26:08;11.70;;;10.60;;
2362;SDS011;64265;51.664;7.626;2023-06-22T09:28:37;11.23;;;10.17;;
2362;SDS011;64265;51.664;7.626;2023-06-22T09:31:04;12.40;;;10.80;;
2362;SDS011;64265;51.664;7.626;2023-06-22T09:33:30;10.10;;;9.20;;
2362;SDS011;64265;51.664;7.626;2023-06-22T09:35:57;12.13;;;9.83;;
2362;SDS011;64265;51.664;7.626;2023-06-22T09:38:24;13.40;;;8.83;;
2362;SDS011;64265;51.664;7.626;2023-06-22T09:40:50;9.90;;;8.60;;
2362;SDS011;64265;51.664;7.626;2023-06-22T09:43:17;9.23;;;8.50;;
2362;SDS011;64265;51.664;7.626;2023-06-22T09:45:45;9.40;;;7.23;;
2362;SDS011;64265;51.664;7.626;2023-06-22T09:48:12;9.50;;;8.60;;
2362;SDS011;64265;51.664;7.626;2023-06-22T09:50:38;9.77;;;8.77;;
2362;SDS011;64265;51.664;7.626;2023-06-22T09:53:05;10.13;;;8.87;;
2362;SDS011;64265;51.664;7.626;2023-06-22T09:55:32;11.73;;;8.87;;
2362;SDS011;64265;51.664;7.626;2023-06-22T09:57:59;9.07;;;8.10;;
2362;SDS011;64265;51.664;7.626;2023-06-22T10:00:25;9.60;;;7.93;;
2362;SDS011;64265;51.664;7.626;2023-06-22T10:02:53;9.73;;;8.80;;
2362;SDS011;64265;51.664;7.626;2023-06-22T10:05:21;9.50;;;8.57;;
2362;SDS011;64265;51.664;7.626;2023-06-22T10:07:47;8.47;;;7.70;;
2362;SDS011;64265;51.664;7.626;2023-06-22T10:10:14;8.87;;;7.63;;
2362;SDS011;64265;51.664;7.626;2023-06-22T10:12:41;8.40;;;7.70;;
2362;SDS011;64265;51.664;7.626;2023-06-22T10:15:10;9.40;;;8.60;;
2362;SDS011;64265;51.664;7.626;2023-06-22T10:17:37;8.83;;;7.83;;
2362;SDS011;64265;51.664;7.626;2023-06-22T10:20:06;7.93;;;7.23;;
2362;SDS011;64265;51.664;7.626;2023-06-22T10:22:37;9.93;;;7.80;;
2362;SDS011;64265;51.664;7.626;2023-06-22T10:25:04;7.90;;;7.30;;
2362;SDS011;64265;51.664;7.626;2023-06-22T10:27:32;6.97;;;6.40;;
2362;SDS011;64265;51.664;7.626;2023-06-22T10:29:58;8.20;;;7.50;;
2362;SDS011;64265;51.664;7.626;2023-06-22T10:32:25;10.03;;;7.90;;
2362;SDS011;64265;51.664;7.626;2023-06-22T10:34:53;8.47;;;7.67;;
2362;SDS011;64265;51.664;7.626;2023-06-22T10:37:21;7.10;;;6.50;;
2362;SDS011;64265;51.664;7.626;2023-06-22T10:39:48;12.13;;;7.03;;
2362;SDS011;64265;51.664;7.626;2023-06-22T10:42:15;8.53;;;7.83;;
2362;SDS011;64265;51.664;7.626;2023-06-22T10:44:42;8.07;;;7.47;;
2362;SDS011;64265;51.664;7.626;2023-06-22T10:47:09;7.77;;;7.13;;
2362;SDS011;64265;51.664;7.626;2023-06-22T10:49:37;8.83;;;7.93;;
2362;SDS011;64265;51.664;7.626;2023-06-22T10:52:04;7.53;;;6.83;;
2362;SDS011;64265;51.664;7.626;2023-06-22T10:54:33;7.53;;;6.90;;
2362;SDS011;64265;51.664;7.626;2023-06-22T10:57:01;10.20;;;7.33;;
2362;SDS011;64265;51.664;7.626;2023-06-22T10:59:28;7.00;;;6.50;;
2362;SDS011;64265;51.664;7.626;2023-06-22T11:01:54;7.27;;;6.67;;
2362;SDS011;64265;51.664;7.626;2023-06-22T11:04:22;7.50;;;6.80;;
2362;SDS011;64265;51.664;7.626;2023-06-22T11:06:49;6.87;;;6.20;;
2362;SDS011;64265;51.664;7.626;2023-06-22T11:09:16;8.00;;;7.37;;
2362;SDS011;64265;51.664;7.626;2023-06-22T11:11:47;7.50;;;6.80;;
2362;SDS011;64265;51.664;7.626;2023-06-22T11:14:14;7.40;;;6.80;;
2362;SDS011;64265;51.664;7.626;2023-06-22T11:16:40;8.83;;;7.40;;
2362;SDS011;64265;51.664;7.626;2023-06-22T11:19:07;7.83;;;7.03;;
2362;SDS011;64265;51.664;7.626;2023-06-22T11:21:34;7.87;;;7.17;;
2362;SDS011;64265;51.664;7.626;2023-06-22T11:24:01;7.03;;;6.43;;
2362;SDS011;64265;51.664;7.626;2023-06-22T11:26:27;7.07;;;6.30;;
2362;SDS011;64265;51.664;7.626;2023-06-22T11:28:56;7.77;;;7.07;;
2362;SDS011;64265;51.664;7.626;2023-06-22T11:31:22;7.00;;;6.50;;
2362;SDS011;64265;51.664;7.626;2023-06-22T11:33:49;7.77;;;7.07;;
2362;SDS011;64265;51.664;7.626;2023-06-22T11:36:17;6.90;;;6.20;;
2362;SDS011;64265;51.664;7.626;2023-06-22T11:38:44;7.90;;;7.00;;
2362;SDS011;64265;51.664;7.626;2023-06-22T11:41:11;7.93;;;7.23;;
2362;SDS011;64265;51.664;7.626;2023-06-22T11:43:37;7.93;;;7.23;;
2362;SDS011;64265;51.664;7.626;2023-06-22T11:46:05;7.10;;;6.40;;
2362;SDS011;64265;51.664;7.626;2023-06-22T11:48:32;7.10;;;6.43;;
2362;SDS011;64265;51.664;7.626;2023-06-22T11:50:59;7.27;;;6.67;;
2362;SDS011;64265;51.664;7.626;2023-06-22T11:53:27;8.87;;;7.10;;
2362;SDS011;64265;51.664;7.626;2023-06-22T11:55:54;7.07;;;6.50;;
2362;SDS011;64265;51.664;7.626;2023-06-22T11:58:22;7.33;;;6.73;;
2362;SDS011;64265;51.664;7.626;2023-06-22T12:00:49;7.23;;;6.63;;
2362;SDS011;64265;51.664;7.626;2023-06-22T12:03:18;6.77;;;6.27;;
2362;SDS011;64265;51.664;7.626;2023-06-22T12:05:46;6.80;;;6.20;;
2362;SDS011;64265;51.664;7.626;2023-06-22T12:08:13;5.97;;;5.47;;
2362;SDS011;64265;51.664;7.626;2023-06-22T12:10:39;7.50;;;6.80;;
2362;SDS011;64265;51.664;7.626;2023-06-22T12:13:06;7.67;;;6.77;;
2362;SDS011;64265;51.664;7.626;2023-06-22T12:15:33;7.47;;;6.77;;
2362;SDS011;64265;51.664;7.626;2023-06-22T12:17:59;7.70;;;7.00;;
2362;SDS011;64265;51.664;7.626;2023-06-22T12:20:28;7.30;;;6.70;;
2362;SDS011;64265;51.664;7.626;2023-06-22T12:22:55;9.30;;;7.00;;
2362;SDS011;64265;51.664;7.626;2023-06-22T12:25:23;8.70;;;7.90;;
2362;SDS011;64265;51.664;7.626;2023-06-22T12:27:49;7.67;;;6.97;;
2362;SDS011;64265;51.664;7.626;2023-06-22T12:30:16;9.57;;;7.83;;
2362;SDS011;64265;51.664;7.626;2023-06-22T12:32:43;9.40;;;8.47;;
2362;SDS011;64265;51.664;7.626;2023-06-22T12:35:10;9.93;;;9.03;;
2362;SDS011;64265;51.664;7.626;2023-06-22T12:37:40;9.47;;;8.20;;
2362;SDS011;64265;51.664;7.626;2023-06-22T12:40:07;9.10;;;8.30;;
2362;SDS011;64265;51.664;7.626;2023-06-22T12:42:35;9.47;;;8.57;;
2362;SDS011;64265;51.664;7.626;2023-06-22T12:45:02;9.33;;;8.33;;
2362;SDS011;64265;51.664;7.626;2023-06-22T12:47:29;9.17;;;8.27;;
2362;SDS011;64265;51.664;7.626;2023-06-22T12:49:55;8.07;;;7.37;;
2362;SDS011;64265;51.664;7.626;2023-06-22T12:52:22;11.13;;;9.33;;
2362;SDS011;64265;51.664;7.626;2023-06-22T12:54:50;12.23;;;10.00;;
2362;SDS011;64265;51.664;7.626;2023-06-22T12:57:17;10.63;;;9.57;;
2362;SDS011;64265;51.664;7.626;2023-06-22T12:59:45;9.87;;;8.90;;
2362;SDS011;64265;51.664;7.626;2023-06-22T13:02:12;11.17;;;10.07;;
2362;SDS011;64265;51.664;7.626;2023-06-22T13:04:39;11.70;;;9.20;;
2362;SDS011;64265;51.664;7.626;2023-06-22T13:07:06;11.40;;;10.20;;
2362;SDS011;64265;51.664;7.626;2023-06-22T13:09:33;12.60;;;10.00;;
2362;SDS011;64265;51.664;7.626;2023-06-22T13:12:03;11.30;;;10.20;;
2362;SDS011;64265;51.664;7.626;2023-06-22T13:14:30;12.40;;;9.60;;
2362;SDS011;64265;51.664;7.626;2023-06-22T13:16:57;11.63;;;10.43;;
2362;SDS011;64265;51.664;7.626;2023-06-22T13:19:23;11.33;;;9.93;;
2362;SDS011;64265;51.664;7.626;2023-06-22T13:21:51;9.47;;;8.47;;
2362;SDS011;64265;51.664;7.626;2023-06-22T13:24:17;9.03;;;8.17;;
2362;SDS011;64265;51.664;7.626;2023-06-22T13:26:44;13.60;;;9.03;;
2362;SDS011;64265;51.664;7.626;2023-06-22T13:29:12;10.80;;;8.77;;
2362;SDS011;64265;51.664;7.626;2023-06-22T13:31:39;10.60;;;9.67;;
2362;SDS011;64265;51.664;7.626;2023-06-22T13:34:05;10.30;;;9.40;;
2362;SDS011;64265;51.664;7.626;2023-06-22T13:36:32;8.97;;;8.07;;
2362;SDS011;64265;51.664;7.626;2023-06-22T13:38:59;11.00;;;9.00;;
2362;SDS011;64265;51.664;7.626;2023-06-22T13:41:25;9.73;;;8.33;;
2362;SDS011;64265;51.664;7.626;2023-06-22T13:43:52;9.60;;;8.53;;
2362;SDS011;64265;51.664;7.626;2023-06-22T13:46:20;7.90;;;7.20;;
2362;SDS011;64265;51.664;7.626;2023-06-22T13:48:47;8.00;;;7.30;;
2362;SDS011;64265;51.664;7.626;2023-06-22T13:51:13;8.73;;;7.93;;
2362;SDS011;64265;51.664;7.626;2023-06-22T13:53:40;9.17;;;8.47;;
2362;SDS011;64265;51.664;7.626;2023-06-22T13:56:07;8.10;;;7.37;;
2362;SDS011;64265;51.664;7.626;2023-06-22T13:58:33;10.50;;;8.23;;
2362;SDS011;64265;51.664;7.626;2023-06-22T14:01:00;8.17;;;7.33;;
2362;SDS011;64265;51.664;7.626;2023-06-22T14:03:28;9.10;;;8.20;;
2362;SDS011;64265;51.664;7.626;2023-06-22T14:05:55;8.40;;;7.60;;
2362;SDS011;64265;51.664;7.626;2023-06-22T14:08:23;8.80;;;8.00;;
2362;SDS011;64265;51.664;7.626;2023-06-22T14:10:50;7.77;;;7.07;;
2362;SDS011;64265;51.664;7.626;2023-06-22T14:13:18;8.23;;;7.53;;
2362;SDS011;64265;51.664;7.626;2023-06-22T14:15:45;8.73;;;7.70;;
2362;SDS011;64265;51.664;7.626;2023-06-22T14:18:13;7.83;;;7.13;;
2362;SDS011;64265;51.664;7.626;2023-06-22T14:20:41;9.63;;;8.70;;
2362;SDS011;64265;51.664;7.626;2023-06-22T14:23:08;7.27;;;6.67;;
2362;SDS011;64265;51.664;7.626;2023-06-22T14:25:35;7.77;;;7.07;;
2362;SDS011;64265;51.664;7.626;2023-06-22T14:28:01;8.80;;;7.90;;
2362;SDS011;64265;51.664;7.626;2023-06-22T14:30:28;9.13;;;8.33;;
2362;SDS011;64265;51.664;7.626;2023-06-22T14:32:55;8.90;;;8.10;;
2362;SDS011;64265;51.664;7.626;2023-06-22T14:35:21;10.50;;;9.50;;
2362;SDS011;64265;51.664;7.626;2023-06-22T14:37:50;14.43;;;9.50;;
2362;SDS011;64265;51.664;7.626;2023-06-22T14:40:17;10.60;;;9.70;;
2362;SDS011;64265;51.664;7.626;2023-06-22T14:42:43;10.27;;;9.37;;
2362;SDS011;64265;51.664;7.626;2023-06-22T14:45:10;10.07;;;9.07;;
2362;SDS011;64265;51.664;7.626;2023-06-22T14:47:38;10.17;;;9.10;;
2362;SDS011;64265;51.664;7.626;2023-06-22T14:50:05;10.13;;;9.23;;
2362;SDS011;64265;51.664;7.626;2023-06-22T14:52:32;11.03;;;10.10;;
2362;SDS011;64265;51.664;7.626;2023-06-22T14:55:00;9.43;;;8.43;;
2362;SDS011;64265;51.664;7.626;2023-06-22T14:57:26;9.67;;;8.80;;